Terminal Aerodrome Forecast
Issued by NWS Chicago, IL

Home | Current Version | Previous Version | Graphics & Text | Print | Product List | Glossary On
Versions: 1 2 3 4 5 6 7 8 9 10 11 12 13 14 15 16 17 18 19 20 21 22 23 24 25 26 27 28 29 30 31 32 33
000
FTUS43 KLOT 270818 AAA
TAFRFD
TAF AMD
KRFD 270818Z 2708/2806 09005KT 6SM -SHRA SCT035 BKN050
     FM270900 11005KT 6SM -SHRA VCTS OVC035CB
      TEMPO 2709/2711 3SM TSRA OVC015CB
     FM271300 16006KT P6SM VCSH OVC025
     FM271700 20011KT P6SM SCT035 BKN050
     FM280100 21005KT P6SM FEW050 BKN090=

USA.gov is the U.S. government's official web portal to all federal, state and local government web resources and services.